sensor_id;sensor_type;location;lat;lon;timestamp;P1;durP1;ratioP1;P2;durP2;ratioP2
19167;SDS011;9716;53.114;18.040;2024-02-15T00:01:23;18.50;;;8.13;;
19167;SDS011;9716;53.114;18.040;2024-02-15T00:03:51;21.50;;;8.77;;
19167;SDS011;9716;53.114;18.040;2024-02-15T00:06:20;23.50;;;9.77;;
19167;SDS011;9716;53.114;18.040;2024-02-15T00:08:49;21.90;;;9.77;;
19167;SDS011;9716;53.114;18.040;2024-02-15T00:11:19;24.50;;;9.57;;
19167;SDS011;9716;53.114;18.040;2024-02-15T00:13:48;22.73;;;9.60;;
19167;SDS011;9716;53.114;18.040;2024-02-15T00:16:18;20.67;;;8.77;;
19167;SDS011;9716;53.114;18.040;2024-02-15T00:18:48;21.13;;;8.70;;
19167;SDS011;9716;53.114;18.040;2024-02-15T00:21:17;23.67;;;9.00;;
19167;SDS011;9716;53.114;18.040;2024-02-15T00:23:45;24.23;;;9.17;;
19167;SDS011;9716;53.114;18.040;2024-02-15T00:26:14;18.20;;;7.70;;
19167;SDS011;9716;53.114;18.040;2024-02-15T00:28:43;20.63;;;8.23;;
19167;SDS011;9716;53.114;18.040;2024-02-15T00:31:12;22.03;;;8.30;;
19167;SDS011;9716;53.114;18.040;2024-02-15T00:33:42;20.20;;;9.13;;
19167;SDS011;9716;53.114;18.040;2024-02-15T00:36:11;19.33;;;8.30;;
19167;SDS011;9716;53.114;18.040;2024-02-15T00:38:40;23.53;;;9.50;;
19167;SDS011;9716;53.114;18.040;2024-02-15T00:41:10;21.90;;;8.50;;
19167;SDS011;9716;53.114;18.040;2024-02-15T00:43:38;23.90;;;8.97;;
19167;SDS011;9716;53.114;18.040;2024-02-15T00:46:07;18.07;;;7.83;;
19167;SDS011;9716;53.114;18.040;2024-02-15T00:48:35;23.57;;;9.40;;
19167;SDS011;9716;53.114;18.040;2024-02-15T00:51:06;19.00;;;8.47;;
19167;SDS011;9716;53.114;18.040;2024-02-15T00:53:34;17.17;;;7.57;;
19167;SDS011;9716;53.114;18.040;2024-02-15T00:56:04;23.50;;;8.07;;
19167;SDS011;9716;53.114;18.040;2024-02-15T00:58:33;21.13;;;8.73;;
19167;SDS011;9716;53.114;18.040;2024-02-15T01:01:02;28.37;;;9.07;;
19167;SDS011;9716;53.114;18.040;2024-02-15T01:03:31;17.50;;;7.23;;
19167;SDS011;9716;53.114;18.040;2024-02-15T01:06:00;20.23;;;7.87;;
19167;SDS011;9716;53.114;18.040;2024-02-15T01:08:30;17.77;;;7.43;;
19167;SDS011;9716;53.114;18.040;2024-02-15T01:10:59;15.97;;;7.67;;
19167;SDS011;9716;53.114;18.040;2024-02-15T01:13:28;20.03;;;7.87;;
19167;SDS011;9716;53.114;18.040;2024-02-15T01:15:56;16.37;;;7.97;;
19167;SDS011;9716;53.114;18.040;2024-02-15T01:18:29;15.23;;;7.33;;
19167;SDS011;9716;53.114;18.040;2024-02-15T01:20:59;15.57;;;7.43;;
19167;SDS011;9716;53.114;18.040;2024-02-15T01:23:27;18.37;;;7.53;;
19167;SDS011;9716;53.114;18.040;2024-02-15T01:25:57;15.33;;;8.07;;
19167;SDS011;9716;53.114;18.040;2024-02-15T01:28:28;22.30;;;8.07;;
19167;SDS011;9716;53.114;18.040;2024-02-15T01:30:56;20.83;;;8.57;;
19167;SDS011;9716;53.114;18.040;2024-02-15T01:33:25;21.70;;;7.30;;
19167;SDS011;9716;53.114;18.040;2024-02-15T01:35:57;20.47;;;7.63;;
19167;SDS011;9716;53.114;18.040;2024-02-15T01:38:26;18.13;;;7.73;;
19167;SDS011;9716;53.114;18.040;2024-02-15T01:40:55;18.13;;;7.47;;
19167;SDS011;9716;53.114;18.040;2024-02-15T01:43:24;15.03;;;7.47;;
19167;SDS011;9716;53.114;18.040;2024-02-15T01:45:53;20.13;;;7.97;;
19167;SDS011;9716;53.114;18.040;2024-02-15T01:48:23;21.83;;;7.90;;
19167;SDS011;9716;53.114;18.040;2024-02-15T01:50:52;16.83;;;6.47;;
19167;SDS011;9716;53.114;18.040;2024-02-15T01:53:21;20.00;;;7.83;;
19167;SDS011;9716;53.114;18.040;2024-02-15T01:55:50;17.37;;;7.77;;
19167;SDS011;9716;53.114;18.040;2024-02-15T01:58:21;14.97;;;6.67;;
19167;SDS011;9716;53.114;18.040;2024-02-15T02:00:51;18.27;;;7.50;;
19167;SDS011;9716;53.114;18.040;2024-02-15T02:03:21;17.80;;;7.87;;
19167;SDS011;9716;53.114;18.040;2024-02-15T02:05:50;15.37;;;7.23;;
19167;SDS011;9716;53.114;18.040;2024-02-15T02:08:20;18.73;;;7.20;;
19167;SDS011;9716;53.114;18.040;2024-02-15T02:10:49;14.70;;;7.33;;
19167;SDS011;9716;53.114;18.040;2024-02-15T02:13:19;15.30;;;6.97;;
19167;SDS011;9716;53.114;18.040;2024-02-15T02:15:48;16.90;;;6.93;;
19167;SDS011;9716;53.114;18.040;2024-02-15T02:18:19;19.10;;;7.53;;
19167;SDS011;9716;53.114;18.040;2024-02-15T02:20:48;16.13;;;6.50;;
19167;SDS011;9716;53.114;18.040;2024-02-15T02:23:17;18.67;;;7.63;;
19167;SDS011;9716;53.114;18.040;2024-02-15T02:25:51;18.50;;;7.60;;
19167;SDS011;9716;53.114;18.040;2024-02-15T02:28:22;15.57;;;7.77;;
19167;SDS011;9716;53.114;18.040;2024-02-15T02:30:51;15.47;;;7.13;;
19167;SDS011;9716;53.114;18.040;2024-02-15T02:33:19;16.23;;;6.43;;
19167;SDS011;9716;53.114;18.040;2024-02-15T02:35:49;18.43;;;7.73;;
19167;SDS011;9716;53.114;18.040;2024-02-15T02:38:19;14.90;;;6.03;;
19167;SDS011;9716;53.114;18.040;2024-02-15T02:40:48;14.27;;;7.63;;
19167;SDS011;9716;53.114;18.040;2024-02-15T02:43:18;14.80;;;6.73;;
19167;SDS011;9716;53.114;18.040;2024-02-15T02:45:46;21.13;;;7.80;;
19167;SDS011;9716;53.114;18.040;2024-02-15T02:48:15;14.07;;;6.70;;
19167;SDS011;9716;53.114;18.040;2024-02-15T02:50:45;20.23;;;7.73;;
19167;SDS011;9716;53.114;18.040;2024-02-15T02:53:14;16.87;;;7.87;;
19167;SDS011;9716;53.114;18.040;2024-02-15T02:55:43;17.77;;;7.47;;
19167;SDS011;9716;53.114;18.040;2024-02-15T02:58:11;18.00;;;6.77;;
19167;SDS011;9716;53.114;18.040;2024-02-15T03:00:41;14.83;;;6.67;;
19167;SDS011;9716;53.114;18.040;2024-02-15T03:03:10;15.27;;;6.57;;
19167;SDS011;9716;53.114;18.040;2024-02-15T03:05:39;16.27;;;7.50;;
19167;SDS011;9716;53.114;18.040;2024-02-15T03:08:08;19.50;;;8.57;;
19167;SDS011;9716;53.114;18.040;2024-02-15T03:10:37;22.63;;;7.93;;
19167;SDS011;9716;53.114;18.040;2024-02-15T03:13:05;16.40;;;7.57;;
19167;SDS011;9716;53.114;18.040;2024-02-15T03:15:34;17.37;;;6.60;;
19167;SDS011;9716;53.114;18.040;2024-02-15T03:18:04;17.57;;;7.07;;
19167;SDS011;9716;53.114;18.040;2024-02-15T03:20:36;15.37;;;7.00;;
19167;SDS011;9716;53.114;18.040;2024-02-15T03:23:05;15.20;;;6.43;;
19167;SDS011;9716;53.114;18.040;2024-02-15T03:25:34;17.63;;;7.87;;
19167;SDS011;9716;53.114;18.040;2024-02-15T03:28:04;14.20;;;6.47;;
19167;SDS011;9716;53.114;18.040;2024-02-15T03:30:32;13.73;;;6.70;;
19167;SDS011;9716;53.114;18.040;2024-02-15T03:33:01;14.47;;;6.37;;
19167;SDS011;9716;53.114;18.040;2024-02-15T03:35:34;12.23;;;6.10;;
19167;SDS011;9716;53.114;18.040;2024-02-15T03:38:04;14.13;;;6.50;;
19167;SDS011;9716;53.114;18.040;2024-02-15T03:40:34;15.53;;;6.93;;
19167;SDS011;9716;53.114;18.040;2024-02-15T03:43:04;15.73;;;7.20;;
19167;SDS011;9716;53.114;18.040;2024-02-15T03:45:34;15.03;;;6.63;;
19167;SDS011;9716;53.114;18.040;2024-02-15T03:48:02;16.33;;;6.70;;
19167;SDS011;9716;53.114;18.040;2024-02-15T03:50:35;12.67;;;6.10;;
19167;SDS011;9716;53.114;18.040;2024-02-15T03:53:03;13.40;;;6.13;;
19167;SDS011;9716;53.114;18.040;2024-02-15T03:55:35;12.13;;;6.33;;
19167;SDS011;9716;53.114;18.040;2024-02-15T03:58:03;13.17;;;7.10;;
19167;SDS011;9716;53.114;18.040;2024-02-15T04:00:34;15.07;;;7.07;;
19167;SDS011;9716;53.114;18.040;2024-02-15T04:03:04;13.13;;;6.17;;
19167;SDS011;9716;53.114;18.040;2024-02-15T04:05:33;19.93;;;7.30;;
19167;SDS011;9716;53.114;18.040;2024-02-15T04:08:03;14.53;;;7.07;;
19167;SDS011;9716;53.114;18.040;2024-02-15T04:10:32;13.23;;;6.07;;
19167;SDS011;9716;53.114;18.040;2024-02-15T04:13:00;13.10;;;6.87;;
19167;SDS011;9716;53.114;18.040;2024-02-15T04:15:29;19.07;;;7.90;;
19167;SDS011;9716;53.114;18.040;2024-02-15T04:17:57;14.20;;;7.00;;
19167;SDS011;9716;53.114;18.040;2024-02-15T04:20:26;16.73;;;7.20;;
19167;SDS011;9716;53.114;18.040;2024-02-15T04:22:56;15.43;;;7.07;;
19167;SDS011;9716;53.114;18.040;2024-02-15T04:25:28;15.53;;;5.97;;
19167;SDS011;9716;53.114;18.040;2024-02-15T04:27:57;15.00;;;7.00;;
19167;SDS011;9716;53.114;18.040;2024-02-15T04:30:30;14.23;;;6.97;;
19167;SDS011;9716;53.114;18.040;2024-02-15T04:33:01;15.37;;;6.73;;
19167;SDS011;9716;53.114;18.040;2024-02-15T04:35:30;17.87;;;7.37;;
19167;SDS011;9716;53.114;18.040;2024-02-15T04:37:59;16.53;;;7.23;;
19167;SDS011;9716;53.114;18.040;2024-02-15T04:40:29;17.13;;;7.60;;
19167;SDS011;9716;53.114;18.040;2024-02-15T04:42:58;15.67;;;7.20;;
19167;SDS011;9716;53.114;18.040;2024-02-15T04:45:29;17.40;;;7.63;;
19167;SDS011;9716;53.114;18.040;2024-02-15T04:47:58;20.10;;;8.27;;
19167;SDS011;9716;53.114;18.040;2024-02-15T04:50:30;17.57;;;8.50;;
19167;SDS011;9716;53.114;18.040;2024-02-15T04:52:58;20.73;;;8.50;;
19167;SDS011;9716;53.114;18.040;2024-02-15T04:55:27;19.07;;;9.37;;
19167;SDS011;9716;53.114;18.040;2024-02-15T04:57:59;20.70;;;8.87;;
19167;SDS011;9716;53.114;18.040;2024-02-15T05:00:28;16.10;;;8.67;;
19167;SDS011;9716;53.114;18.040;2024-02-15T05:02:56;20.50;;;8.93;;
19167;SDS011;9716;53.114;18.040;2024-02-15T05:05:25;18.33;;;8.97;;
19167;SDS011;9716;53.114;18.040;2024-02-15T05:07:56;24.97;;;9.40;;
19167;SDS011;9716;53.114;18.040;2024-02-15T05:10:24;21.43;;;9.63;;
19167;SDS011;9716;53.114;18.040;2024-02-15T05:12:53;21.33;;;9.27;;
19167;SDS011;9716;53.114;18.040;2024-02-15T05:15:23;20.77;;;8.90;;
19167;SDS011;9716;53.114;18.040;2024-02-15T05:17:52;18.60;;;8.33;;
19167;SDS011;9716;53.114;18.040;2024-02-15T05:20:21;20.40;;;9.43;;
19167;SDS011;9716;53.114;18.040;2024-02-15T05:22:53;17.17;;;8.60;;
19167;SDS011;9716;53.114;18.040;2024-02-15T05:25:22;26.10;;;10.23;;
19167;SDS011;9716;53.114;18.040;2024-02-15T05:27:53;21.73;;;10.03;;
19167;SDS011;9716;53.114;18.040;2024-02-15T05:30:25;21.50;;;10.23;;
19167;SDS011;9716;53.114;18.040;2024-02-15T05:32:54;26.23;;;10.43;;
19167;SDS011;9716;53.114;18.040;2024-02-15T05:35:25;20.47;;;9.77;;
19167;SDS011;9716;53.114;18.040;2024-02-15T05:37:54;22.13;;;9.93;;
19167;SDS011;9716;53.114;18.040;2024-02-15T05:40:23;20.23;;;9.60;;
19167;SDS011;9716;53.114;18.040;2024-02-15T05:42:55;19.23;;;8.70;;
19167;SDS011;9716;53.114;18.040;2024-02-15T05:45:30;24.37;;;10.23;;
19167;SDS011;9716;53.114;18.040;2024-02-15T05:48:04;19.10;;;8.93;;
19167;SDS011;9716;53.114;18.040;2024-02-15T05:50:39;17.07;;;9.07;;
19167;SDS011;9716;53.114;18.040;2024-02-15T05:53:08;18.07;;;8.67;;
19167;SDS011;9716;53.114;18.040;2024-02-15T05:55:37;18.30;;;8.67;;
19167;SDS011;9716;53.114;18.040;2024-02-15T05:58:07;21.40;;;9.33;;
19167;SDS011;9716;53.114;18.040;2024-02-15T06:00:38;19.13;;;8.70;;
19167;SDS011;9716;53.114;18.040;2024-02-15T06:03:08;20.10;;;9.57;;
19167;SDS011;9716;53.114;18.040;2024-02-15T06:05:38;20.07;;;9.40;;
19167;SDS011;9716;53.114;18.040;2024-02-15T06:08:08;18.73;;;8.47;;
19167;SDS011;9716;53.114;18.040;2024-02-15T06:10:39;18.57;;;9.90;;
19167;SDS011;9716;53.114;18.040;2024-02-15T06:13:08;15.33;;;7.67;;
19167;SDS011;9716;53.114;18.040;2024-02-15T06:15:38;21.40;;;9.03;;
19167;SDS011;9716;53.114;18.040;2024-02-15T06:18:07;21.90;;;9.20;;
19167;SDS011;9716;53.114;18.040;2024-02-15T06:20:39;21.40;;;8.13;;
19167;SDS011;9716;53.114;18.040;2024-02-15T06:23:09;21.97;;;8.40;;
19167;SDS011;9716;53.114;18.040;2024-02-15T06:25:38;18.40;;;9.07;;
19167;SDS011;9716;53.114;18.040;2024-02-15T06:28:07;19.50;;;10.20;;
19167;SDS011;9716;53.114;18.040;2024-02-15T06:30:48;18.40;;;8.70;;
19167;SDS011;9716;53.114;18.040;2024-02-15T06:33:33;21.17;;;8.23;;
19167;SDS011;9716;53.114;18.040;2024-02-15T06:36:20;19.57;;;9.40;;
19167;SDS011;9716;53.114;18.040;2024-02-15T06:39:05;23.07;;;9.50;;
19167;SDS011;9716;53.114;18.040;2024-02-15T06:41:52;16.53;;;7.87;;
19167;SDS011;9716;53.114;18.040;2024-02-15T06:44:21;18.97;;;8.53;;
19167;SDS011;9716;53.114;18.040;2024-02-15T06:46:52;15.60;;;8.00;;
19167;SDS011;9716;53.114;18.040;2024-02-15T06:49:20;18.53;;;8.77;;
19167;SDS011;9716;53.114;18.040;2024-02-15T06:51:49;14.00;;;7.53;;
19167;SDS011;9716;53.114;18.040;2024-02-15T06:54:19;15.87;;;7.87;;
19167;SDS011;9716;53.114;18.040;2024-02-15T06:56:48;19.03;;;8.83;;
19167;SDS011;9716;53.114;18.040;2024-02-15T06:59:18;19.67;;;8.30;;
19167;SDS011;9716;53.114;18.040;2024-02-15T07:01:49;16.67;;;7.50;;
19167;SDS011;9716;53.114;18.040;2024-02-15T07:04:20;17.00;;;8.53;;
19167;SDS011;9716;53.114;18.040;2024-02-15T07:06:50;16.27;;;7.60;;
19167;SDS011;9716;53.114;18.040;2024-02-15T07:09:21;15.57;;;7.23;;
19167;SDS011;9716;53.114;18.040;2024-02-15T07:11:51;14.80;;;8.10;;
19167;SDS011;9716;53.114;18.040;2024-02-15T07:14:20;15.43;;;8.00;;
19167;SDS011;9716;53.114;18.040;2024-02-15T07:16:49;20.77;;;8.50;;
19167;SDS011;9716;53.114;18.040;2024-02-15T07:19:19;13.67;;;7.33;;
19167;SDS011;9716;53.114;18.040;2024-02-15T07:21:48;16.30;;;8.43;;
19167;SDS011;9716;53.114;18.040;2024-02-15T07:24:17;17.50;;;7.90;;
19167;SDS011;9716;53.114;18.040;2024-02-15T07:26:47;17.10;;;8.13;;
19167;SDS011;9716;53.114;18.040;2024-02-15T07:29:19;14.63;;;7.47;;
19167;SDS011;9716;53.114;18.040;2024-02-15T07:31:50;13.07;;;7.33;;
19167;SDS011;9716;53.114;18.040;2024-02-15T07:34:20;18.73;;;8.17;;
19167;SDS011;9716;53.114;18.040;2024-02-15T07:36:49;14.33;;;7.80;;
19167;SDS011;9716;53.114;18.040;2024-02-15T07:39:18;14.30;;;7.20;;
19167;SDS011;9716;53.114;18.040;2024-02-15T07:41:51;18.17;;;7.97;;
19167;SDS011;9716;53.114;18.040;2024-02-15T07:44:19;18.97;;;7.93;;
19167;SDS011;9716;53.114;18.040;2024-02-15T07:46:49;18.90;;;8.17;;
19167;SDS011;9716;53.114;18.040;2024-02-15T07:49:17;15.67;;;8.03;;
19167;SDS011;9716;53.114;18.040;2024-02-15T07:51:49;15.63;;;7.80;;
19167;SDS011;9716;53.114;18.040;2024-02-15T07:54:20;18.33;;;7.97;;
19167;SDS011;9716;53.114;18.040;2024-02-15T07:56:49;17.97;;;7.40;;
19167;SDS011;9716;53.114;18.040;2024-02-15T07:59:18;16.23;;;8.53;;
19167;SDS011;9716;53.114;18.040;2024-02-15T08:01:48;18.27;;;8.73;;
19167;SDS011;9716;53.114;18.040;2024-02-15T08:04:17;20.10;;;8.33;;
19167;SDS011;9716;53.114;18.040;2024-02-15T08:06:48;14.87;;;8.13;;
19167;SDS011;9716;53.114;18.040;2024-02-15T08:09:19;14.07;;;7.83;;
19167;SDS011;9716;53.114;18.040;2024-02-15T08:11:51;16.33;;;7.70;;
19167;SDS011;9716;53.114;18.040;2024-02-15T08:14:22;17.33;;;7.73;;
19167;SDS011;9716;53.114;18.040;2024-02-15T08:16:51;13.93;;;7.27;;
19167;SDS011;9716;53.114;18.040;2024-02-15T08:19:21;20.40;;;8.23;;
19167;SDS011;9716;53.114;18.040;2024-02-15T08:21:50;16.10;;;7.80;;
19167;SDS011;9716;53.114;18.040;2024-02-15T08:24:19;18.77;;;8.67;;
19167;SDS011;9716;53.114;18.040;2024-02-15T08:26:48;17.37;;;7.67;;
19167;SDS011;9716;53.114;18.040;2024-02-15T08:29:16;15.70;;;7.33;;
19167;SDS011;9716;53.114;18.040;2024-02-15T08:31:45;19.73;;;7.97;;
19167;SDS011;9716;53.114;18.040;2024-02-15T08:34:15;18.50;;;8.30;;
19167;SDS011;9716;53.114;18.040;2024-02-15T08:36:47;15.07;;;7.87;;
19167;SDS011;9716;53.114;18.040;2024-02-15T08:39:15;20.30;;;8.27;;
19167;SDS011;9716;53.114;18.040;2024-02-15T08:41:44;19.53;;;8.50;;
19167;SDS011;9716;53.114;18.040;2024-02-15T08:44:13;29.20;;;8.87;;
19167;SDS011;9716;53.114;18.040;2024-02-15T08:46:43;18.30;;;8.77;;
19167;SDS011;9716;53.114;18.040;2024-02-15T08:49:13;13.53;;;7.67;;
19167;SDS011;9716;53.114;18.040;2024-02-15T08:51:42;27.00;;;8.63;;
19167;SDS011;9716;53.114;18.040;2024-02-15T08:54:12;17.17;;;7.67;;
19167;SDS011;9716;53.114;18.040;2024-02-15T08:56:41;18.67;;;9.10;;
19167;SDS011;9716;53.114;18.040;2024-02-15T08:59:10;19.77;;;8.37;;
19167;SDS011;9716;53.114;18.040;2024-02-15T09:01:39;16.63;;;8.47;;
19167;SDS011;9716;53.114;18.040;2024-02-15T09:04:07;15.43;;;8.13;;
19167;SDS011;9716;53.114;18.040;2024-02-15T09:06:36;21.50;;;9.87;;
19167;SDS011;9716;53.114;18.040;2024-02-15T09:09:04;16.90;;;7.97;;
19167;SDS011;9716;53.114;18.040;2024-02-15T09:11:35;17.17;;;9.23;;
19167;SDS011;9716;53.114;18.040;2024-02-15T09:14:03;18.57;;;7.93;;
19167;SDS011;9716;53.114;18.040;2024-02-15T09:16:32;21.03;;;8.03;;
19167;SDS011;9716;53.114;18.040;2024-02-15T09:19:03;20.87;;;9.07;;
19167;SDS011;9716;53.114;18.040;2024-02-15T09:21:33;20.03;;;9.13;;
19167;SDS011;9716;53.114;18.040;2024-02-15T09:24:05;16.27;;;8.30;;
19167;SDS011;9716;53.114;18.040;2024-02-15T09:26:36;24.73;;;9.93;;
19167;SDS011;9716;53.114;18.040;2024-02-15T09:29:20;19.00;;;8.60;;
19167;SDS011;9716;53.114;18.040;2024-02-15T09:31:48;21.27;;;8.50;;
19167;SDS011;9716;53.114;18.040;2024-02-15T09:34:17;16.97;;;8.33;;
19167;SDS011;9716;53.114;18.040;2024-02-15T09:36:46;18.70;;;8.07;;
19167;SDS011;9716;53.114;18.040;2024-02-15T09:39:14;22.80;;;9.17;;
19167;SDS011;9716;53.114;18.040;2024-02-15T09:41:46;19.10;;;9.23;;
19167;SDS011;9716;53.114;18.040;2024-02-15T09:44:20;22.77;;;8.87;;
19167;SDS011;9716;53.114;18.040;2024-02-15T09:46:50;17.97;;;8.80;;
19167;SDS011;9716;53.114;18.040;2024-02-15T09:49:33;19.03;;;8.57;;
19167;SDS011;9716;53.114;18.040;2024-02-15T09:52:06;22.63;;;9.00;;
19167;SDS011;9716;53.114;18.040;2024-02-15T09:54:39;16.03;;;7.67;;
19167;SDS011;9716;53.114;18.040;2024-02-15T09:57:11;20.77;;;7.63;;
19167;SDS011;9716;53.114;18.040;2024-02-15T09:59:40;17.20;;;8.33;;
19167;SDS011;9716;53.114;18.040;2024-02-15T10:02:11;21.23;;;8.60;;
19167;SDS011;9716;53.114;18.040;2024-02-15T10:04:41;23.20;;;10.97;;
19167;SDS011;9716;53.114;18.040;2024-02-15T10:07:12;22.53;;;9.20;;
19167;SDS011;9716;53.114;18.040;2024-02-15T10:09:41;17.50;;;8.00;;
19167;SDS011;9716;53.114;18.040;2024-02-15T10:12:12;22.77;;;10.93;;
19167;SDS011;9716;53.114;18.040;2024-02-15T10:14:44;18.43;;;8.10;;
19167;SDS011;9716;53.114;18.040;2024-02-15T10:17:18;17.03;;;8.50;;
19167;SDS011;9716;53.114;18.040;2024-02-15T10:20:02;20.00;;;9.03;;
19167;SDS011;9716;53.114;18.040;2024-02-15T10:22:32;20.70;;;9.07;;
19167;SDS011;9716;53.114;18.040;2024-02-15T10:25:10;23.87;;;9.93;;
19167;SDS011;9716;53.114;18.040;2024-02-15T10:27:41;20.43;;;8.90;;
19167;SDS011;9716;53.114;18.040;2024-02-15T10:30:17;23.27;;;9.57;;
19167;SDS011;9716;53.114;18.040;2024-02-15T10:32:47;25.47;;;9.70;;
19167;SDS011;9716;53.114;18.040;2024-02-15T10:35:19;22.77;;;8.90;;
19167;SDS011;9716;53.114;18.040;2024-02-15T10:37:48;26.10;;;8.63;;
19167;SDS011;9716;53.114;18.040;2024-02-15T10:40:17;24.40;;;9.70;;
19167;SDS011;9716;53.114;18.040;2024-02-15T10:42:48;21.07;;;9.40;;
19167;SDS011;9716;53.114;18.040;2024-02-15T10:45:19;21.40;;;8.47;;
19167;SDS011;9716;53.114;18.040;2024-02-15T10:47:48;16.13;;;8.07;;
19167;SDS011;9716;53.114;18.040;2024-02-15T10:50:17;20.10;;;8.13;;
19167;SDS011;9716;53.114;18.040;2024-02-15T10:52:48;21.40;;;9.07;;
19167;SDS011;9716;53.114;18.040;2024-02-15T10:55:26;23.33;;;8.37;;
19167;SDS011;9716;53.114;18.040;2024-02-15T10:58:07;18.60;;;8.27;;
19167;SDS011;9716;53.114;18.040;2024-02-15T11:00:36;16.83;;;7.77;;
19167;SDS011;9716;53.114;18.040;2024-02-15T11:03:08;26.83;;;9.70;;
19167;SDS011;9716;53.114;18.040;2024-02-15T11:05:41;19.10;;;9.13;;
19167;SDS011;9716;53.114;18.040;2024-02-15T11:08:30;17.23;;;7.85;;
19167;SDS011;9716;53.114;18.040;2024-02-15T11:11:00;20.38;;;8.77;;
19167;SDS011;9716;53.114;18.040;2024-02-15T11:13:32;20.67;;;8.43;;
19167;SDS011;9716;53.114;18.040;2024-02-15T11:16:00;17.45;;;8.93;;
19167;SDS011;9716;53.114;18.040;2024-02-15T11:18:42;17.75;;;7.78;;
19167;SDS011;9716;53.114;18.040;2024-02-15T11:21:20;19.73;;;8.93;;
19167;SDS011;9716;53.114;18.040;2024-02-15T11:24:28;16.27;;;7.88;;
19167;SDS011;9716;53.114;18.040;2024-02-15T11:26:59;21.10;;;9.07;;
19167;SDS011;9716;53.114;18.040;2024-02-15T11:29:47;20.98;;;8.38;;
19167;SDS011;9716;53.114;18.040;2024-02-15T11:32:34;16.95;;;8.20;;
19167;SDS011;9716;53.114;18.040;2024-02-15T11:35:11;20.42;;;8.23;;
19167;SDS011;9716;53.114;18.040;2024-02-15T11:37:49;14.70;;;7.40;;
19167;SDS011;9716;53.114;18.040;2024-02-15T11:40:21;16.85;;;8.18;;
19167;SDS011;9716;53.114;18.040;2024-02-15T11:42:52;19.03;;;8.23;;
19167;SDS011;9716;53.114;18.040;2024-02-15T11:45:21;16.38;;;8.13;;
19167;SDS011;9716;53.114;18.040;2024-02-15T11:47:52;16.40;;;8.75;;
19167;SDS011;9716;53.114;18.040;2024-02-15T11:50:22;18.17;;;8.75;;
19167;SDS011;9716;53.114;18.040;2024-02-15T11:52:52;17.30;;;8.20;;
19167;SDS011;9716;53.114;18.040;2024-02-15T11:55:33;16.00;;;8.40;;
19167;SDS011;9716;53.114;18.040;2024-02-15T11:58:03;19.35;;;7.93;;
19167;SDS011;9716;53.114;18.040;2024-02-15T12:01:02;21.70;;;7.50;;
19167;SDS011;9716;53.114;18.040;2024-02-15T12:04:06;12.82;;;6.80;;
19167;SDS011;9716;53.114;18.040;2024-02-15T12:06:56;13.55;;;7.03;;
19167;SDS011;9716;53.114;18.040;2024-02-15T12:09:43;12.65;;;6.53;;
19167;SDS011;9716;53.114;18.040;2024-02-15T12:12:34;13.67;;;7.60;;
19167;SDS011;9716;53.114;18.040;2024-02-15T12:15:20;17.17;;;7.63;;
19167;SDS011;9716;53.114;18.040;2024-02-15T12:21:25;14.85;;;7.15;;
19167;SDS011;9716;53.114;18.040;2024-02-15T12:23:57;17.45;;;7.57;;
19167;SDS011;9716;53.114;18.040;2024-02-15T12:26:26;15.77;;;7.22;;
19167;SDS011;9716;53.114;18.040;2024-02-15T12:28:58;16.33;;;8.07;;
19167;SDS011;9716;53.114;18.040;2024-02-15T12:31:28;15.10;;;7.45;;
19167;SDS011;9716;53.114;18.040;2024-02-15T12:34:00;15.65;;;8.25;;
19167;SDS011;9716;53.114;18.040;2024-02-15T12:36:29;14.45;;;7.22;;
19167;SDS011;9716;53.114;18.040;2024-02-15T12:39:00;14.27;;;7.68;;
19167;SDS011;9716;53.114;18.040;2024-02-15T12:41:30;16.05;;;7.35;;
19167;SDS011;9716;53.114;18.040;2024-02-15T12:44:00;12.68;;;6.88;;
19167;SDS011;9716;53.114;18.040;2024-02-15T12:46:30;19.15;;;7.72;;
19167;SDS011;9716;53.114;18.040;2024-02-15T12:49:07;14.88;;;6.90;;
19167;SDS011;9716;53.114;18.040;2024-02-15T12:51:40;13.27;;;7.63;;
19167;SDS011;9716;53.114;18.040;2024-02-15T12:54:19;13.77;;;6.65;;
19167;SDS011;9716;53.114;18.040;2024-02-15T12:56:48;12.65;;;6.50;;
19167;SDS011;9716;53.114;18.040;2024-02-15T12:59:20;12.27;;;6.30;;
19167;SDS011;9716;53.114;18.040;2024-02-15T13:01:50;11.23;;;6.70;;
19167;SDS011;9716;53.114;18.040;2024-02-15T13:04:23;12.90;;;6.32;;
19167;SDS011;9716;53.114;18.040;2024-02-15T13:06:52;11.23;;;6.35;;
19167;SDS011;9716;53.114;18.040;2024-02-15T13:09:21;13.40;;;6.95;;
19167;SDS011;9716;53.114;18.040;2024-02-15T13:11:50;16.40;;;6.60;;
19167;SDS011;9716;53.114;18.040;2024-02-15T13:14:22;16.17;;;6.85;;
19167;SDS011;9716;53.114;18.040;2024-02-15T13:16:50;11.50;;;6.60;;
19167;SDS011;9716;53.114;18.040;2024-02-15T13:19:19;14.65;;;7.35;;
19167;SDS011;9716;53.114;18.040;2024-02-15T13:21:48;11.93;;;6.80;;
19167;SDS011;9716;53.114;18.040;2024-02-15T13:24:20;10.20;;;6.05;;
19167;SDS011;9716;53.114;18.040;2024-02-15T13:26:52;12.02;;;6.35;;
19167;SDS011;9716;53.114;18.040;2024-02-15T13:29:27;13.45;;;6.25;;
19167;SDS011;9716;53.114;18.040;2024-02-15T13:31:56;11.75;;;6.65;;
19167;SDS011;9716;53.114;18.040;2024-02-15T13:34:24;15.32;;;6.93;;
19167;SDS011;9716;53.114;18.040;2024-02-15T13:36:53;15.25;;;6.75;;
19167;SDS011;9716;53.114;18.040;2024-02-15T13:39:22;14.05;;;7.40;;
19167;SDS011;9716;53.114;18.040;2024-02-15T13:41:51;13.52;;;6.22;;
19167;SDS011;9716;53.114;18.040;2024-02-15T13:44:20;12.70;;;6.70;;
19167;SDS011;9716;53.114;18.040;2024-02-15T13:46:51;12.82;;;6.60;;
19167;SDS011;9716;53.114;18.040;2024-02-15T13:49:22;16.23;;;7.00;;
19167;SDS011;9716;53.114;18.040;2024-02-15T13:51:58;15.25;;;6.40;;
19167;SDS011;9716;53.114;18.040;2024-02-15T13:54:29;13.20;;;6.55;;
19167;SDS011;9716;53.114;18.040;2024-02-15T13:56:58;15.18;;;6.85;;
19167;SDS011;9716;53.114;18.040;2024-02-15T13:59:28;13.27;;;6.30;;
19167;SDS011;9716;53.114;18.040;2024-02-15T14:01:58;14.18;;;6.57;;
19167;SDS011;9716;53.114;18.040;2024-02-15T14:04:27;14.05;;;6.22;;
19167;SDS011;9716;53.114;18.040;2024-02-15T14:06:56;12.18;;;6.43;;
19167;SDS011;9716;53.114;18.040;2024-02-15T14:09:25;16.40;;;6.03;;
19167;SDS011;9716;53.114;18.040;2024-02-15T14:11:54;13.60;;;6.07;;
19167;SDS011;9716;53.114;18.040;2024-02-15T14:14:25;10.20;;;6.15;;
19167;SDS011;9716;53.114;18.040;2024-02-15T14:16:53;13.32;;;6.38;;
19167;SDS011;9716;53.114;18.040;2024-02-15T14:19:24;11.45;;;6.13;;
19167;SDS011;9716;53.114;18.040;2024-02-15T14:21:53;17.33;;;7.00;;
19167;SDS011;9716;53.114;18.040;2024-02-15T14:24:22;12.23;;;6.40;;
19167;SDS011;9716;53.114;18.040;2024-02-15T14:26:51;13.10;;;6.82;;
19167;SDS011;9716;53.114;18.040;2024-02-15T14:29:20;10.00;;;5.78;;
19167;SDS011;9716;53.114;18.040;2024-02-15T14:31:52;11.75;;;6.47;;
19167;SDS011;9716;53.114;18.040;2024-02-15T14:34:40;13.30;;;6.13;;
19167;SDS011;9716;53.114;18.040;2024-02-15T14:37:09;13.68;;;6.43;;
19167;SDS011;9716;53.114;18.040;2024-02-15T14:39:37;10.32;;;5.93;;
19167;SDS011;9716;53.114;18.040;2024-02-15T14:42:06;10.00;;;6.07;;
19167;SDS011;9716;53.114;18.040;2024-02-15T14:44:38;13.90;;;5.70;;
19167;SDS011;9716;53.114;18.040;2024-02-15T14:47:06;11.30;;;6.28;;
19167;SDS011;9716;53.114;18.040;2024-02-15T14:49:35;11.38;;;6.40;;
19167;SDS011;9716;53.114;18.040;2024-02-15T14:52:06;13.00;;;6.93;;
19167;SDS011;9716;53.114;18.040;2024-02-15T14:54:34;14.68;;;6.15;;
19167;SDS011;9716;53.114;18.040;2024-02-15T14:57:04;13.55;;;6.80;;
19167;SDS011;9716;53.114;18.040;2024-02-15T14:59:33;12.82;;;5.88;;